Time;durP1;ratioP1;P1;durP2;ratioP2;P2;SDS_P1;SDS_P2;PMS_P1;PMS_P2;Temp;Humidity;BMP_temperature;BMP_pressure;BME280_temperature;BME280_humidity;BME280_pressure;Samples;Min_cycle;Max_cycle;Signal;HPM_P1;HPM_P2
2022/05/26 00:01:08;;;;;;;12.47;7.50;;;13.30;99.90;;;;;;5025409;28;20044;-80
2022/05/26 00:03:36;;;;;;;12.97;7.20;;;13.30;99.90;;;;;;5036753;28;20059;-80
2022/05/26 00:06:04;;;;;;;9.87;6.57;;;13.30;99.90;;;;;;5055404;28;20044;-80
2022/05/26 00:08:30;;;;;;;8.00;5.47;;;13.40;99.90;;;;;;5022315;28;20041;-80
2022/05/26 00:10:56;;;;;;;7.07;5.07;;;13.30;99.90;;;;;;5054738;28;20076;-80
2022/05/26 00:13:22;;;;;;;6.17;4.50;;;13.30;99.90;;;;;;5038584;28;20076;-80
2022/05/26 00:15:48;;;;;;;7.80;5.13;;;13.30;99.90;;;;;;5036201;28;20041;-79
2022/05/26 00:18:14;;;;;;;5.87;4.17;;;13.30;99.90;;;;;;5023033;28;20166;-80
2022/05/26 00:20:39;;;;;;;5.93;3.80;;;13.30;99.90;;;;;;5022253;28;20049;-80
2022/05/26 00:23:05;;;;;;;4.87;3.33;;;13.40;99.90;;;;;;5038844;28;20041;-80
2022/05/26 00:25:31;;;;;;;4.80;3.20;;;13.40;99.90;;;;;;5040431;28;20044;-80
2022/05/26 00:27:57;;;;;;;4.67;3.00;;;13.40;99.90;;;;;;5039918;28;20072;-80
2022/05/26 00:30:23;;;;;;;8.83;4.27;;;13.30;99.90;;;;;;5007684;28;20132;-80
2022/05/26 00:32:49;;;;;;;6.60;4.00;;;13.30;99.90;;;;;;5055925;28;20084;-81
2022/05/26 00:35:15;;;;;;;8.63;4.57;;;13.30;99.90;;;;;;5042452;28;20056;-80
2022/05/26 00:37:42;;;;;;;8.43;4.73;;;13.30;99.90;;;;;;5042385;28;20041;-80
2022/05/26 00:40:10;;;;;;;6.17;4.93;;;13.40;99.90;;;;;;5060292;28;20045;-80
2022/05/26 00:42:36;;;;;;;6.83;5.10;;;13.40;99.90;;;;;;5060998;28;20048;-80
2022/05/26 00:45:03;;;;;;;7.73;5.20;;;13.40;99.90;;;;;;5025964;28;20906;-80
2022/05/26 00:47:32;;;;;;;10.00;5.70;;;13.40;99.90;;;;;;5045102;28;20083;-81
2022/05/26 00:50:11;;;;;;;8.03;5.70;;;13.40;99.90;;;;;;5043419;28;20041;-79
2022/05/26 00:52:55;;;;;;;11.23;6.87;;;13.40;99.90;;;;;;5046042;28;20413;-80
2022/05/26 00:55:38;;;;;;;10.77;6.83;;;13.40;99.90;;;;;;5055150;28;20087;-80
2022/05/26 00:58:28;;;;;;;11.97;7.47;;;13.40;99.90;;;;;;5041070;28;20065;-79
2022/05/26 01:00:55;;;;;;;15.40;8.90;;;13.50;99.90;;;;;;5040969;28;20052;-80
2022/05/26 01:03:56;;;;;;;16.43;10.97;;;13.50;99.90;;;;;;5059288;28;20052;-79
2022/05/26 01:06:24;;;;;;;18.77;10.63;;;13.50;99.90;;;;;;5020119;28;20057;-80
2022/05/26 01:09:02;;;;;;;17.83;11.00;;;13.50;99.90;;;;;;5060540;28;20049;-79
2022/05/26 01:11:30;;;;;;;20.47;11.93;;;13.50;99.90;;;;;;5056766;28;20063;-80
2022/05/26 01:14:21;;;;;;;21.10;12.00;;;13.60;99.90;;;;;;5043332;28;20044;-79
2022/05/26 01:16:53;;;;;;;27.13;13.70;;;13.60;99.90;;;;;;5059465;28;20417;-79
2022/05/26 01:19:39;;;;;;;25.20;13.13;;;13.60;99.90;;;;;;5073783;28;20056;-79
2022/05/26 01:22:20;;;;;;;26.60;14.20;;;13.60;99.90;;;;;;5057511;28;20049;-79
2022/05/26 01:25:07;;;;;;;26.53;14.13;;;13.60;99.90;;;;;;5057408;28;20041;-79
2022/05/26 01:27:37;;;;;;;27.17;14.93;;;13.60;99.90;;;;;;5044307;28;20060;-80
2022/05/26 01:30:20;;;;;;;34.07;15.37;;;13.60;99.90;;;;;;5056961;28;20109;-80
2022/05/26 01:32:54;;;;;;;38.23;16.07;;;13.70;99.90;;;;;;5057830;28;20045;-79
2022/05/26 01:35:52;;;;;;;34.17;15.93;;;13.60;99.90;;;;;;5057969;28;20915;-79
2022/05/26 01:38:23;;;;;;;31.07;16.00;;;13.70;99.90;;;;;;5042222;28;20118;-80
2022/05/26 01:41:10;;;;;;;36.30;16.65;;;13.70;99.90;;;;;;5041645;28;20051;-80
2022/05/26 01:43:55;;;;;;;29.27;16.07;;;13.70;99.90;;;;;;5041435;28;20048;-81
2022/05/26 01:46:21;;;;;;;26.97;15.53;;;13.70;99.90;;;;;;5037769;28;20049;-80
2022/05/26 01:48:54;;;;;;;34.40;16.03;;;13.70;99.90;;;;;;5043683;28;20048;-80
2022/05/26 01:51:29;;;;;;;30.93;15.73;;;13.70;99.90;;;;;;5039484;28;20051;-79
2022/05/26 01:54:04;;;;;;;31.90;14.37;;;13.70;99.90;;;;;;5058876;28;20083;-79
2022/05/26 01:56:54;;;;;;;28.87;14.37;;;13.70;99.90;;;;;;5041852;28;20053;-79
2022/05/26 01:59:29;;;;;;;35.90;14.70;;;13.70;99.90;;;;;;5074463;28;20060;-79
2022/05/26 02:02:03;;;;;;;37.47;14.93;;;13.60;99.90;;;;;;5074425;28;20133;-79
2022/05/26 02:04:34;;;;;;;33.03;14.63;;;13.60;99.90;;;;;;5058144;28;20161;-79
2022/05/26 02:07:22;;;;;;;33.65;15.10;;;13.60;99.90;;;;;;5072997;28;20056;-79
2022/05/26 02:09:49;;;;;;;39.23;13.57;;;13.60;99.90;;;;;;5058571;28;20044;-79
2022/05/26 02:12:36;;;;;;;36.73;13.87;;;13.60;99.90;;;;;;5040592;28;20088;-80
2022/05/26 02:15:37;;;;;;;34.83;13.83;;;13.60;99.90;;;;;;5039311;28;20095;-80
2022/05/26 02:18:10;;;;;;;33.63;12.83;;;13.60;99.90;;;;;;5018742;28;20108;-76
2022/05/26 02:20:44;;;;;;;34.87;13.93;;;13.60;99.90;;;;;;5039456;28;20174;-77
2022/05/26 02:23:19;;;;;;;34.40;12.73;;;13.60;99.90;;;;;;5059302;28;20204;-77
2022/05/26 02:25:46;;;;;;;32.00;13.30;;;13.60;99.90;;;;;;5038190;28;20087;-77
2022/05/26 02:28:12;;;;;;;40.70;15.10;;;13.60;99.90;;;;;;5056776;28;20115;-78
2022/05/26 02:30:41;;;;;;;39.37;15.50;;;13.60;99.90;;;;;;5024634;28;20052;-77
2022/05/26 02:33:10;;;;;;;37.43;13.93;;;13.60;99.90;;;;;;5038523;28;20056;-76
2022/05/26 02:35:49;;;;;;;38.83;14.30;;;13.60;99.90;;;;;;5042109;28;20106;-77
2022/05/26 02:38:18;;;;;;;39.90;14.80;;;13.70;99.90;;;;;;5039975;28;21390;-76
2022/05/26 02:40:44;;;;;;;40.13;16.10;;;13.70;99.90;;;;;;5055836;28;20052;-77
2022/05/26 02:43:18;;;;;;;43.93;15.13;;;13.70;99.90;;;;;;5039486;28;20051;-77
2022/05/26 02:45:57;;;;;;;39.80;15.17;;;13.70;99.90;;;;;;5070220;28;20505;-76
2022/05/26 02:48:58;;;;;;;35.77;13.83;;;13.70;99.90;;;;;;5054681;28;20127;-76
2022/05/26 02:52:03;;;;;;;42.23;14.93;;;13.70;99.90;;;;;;5013983;28;20045;-76
2022/05/26 02:54:37;;;;;;;42.10;14.97;;;13.70;99.90;;;;;;5030010;28;20045;-77
2022/05/26 02:57:29;;;;;;;38.47;15.30;;;13.70;99.90;;;;;;5039546;28;20051;-76
2022/05/26 03:00:13;;;;;;;32.95;14.40;;;13.80;99.90;;;;;;5057933;28;20092;-76
2022/05/26 03:02:52;;;;;;;42.30;14.20;;;13.80;99.90;;;;;;5038259;28;20076;-78
2022/05/26 03:05:27;;;;;;;38.30;14.77;;;13.80;99.90;;;;;;5038710;28;20826;-76
2022/05/26 03:07:56;;;;;;;45.03;14.60;;;13.80;99.90;;;;;;5058683;28;20131;-76
2022/05/26 03:10:25;;;;;;;36.77;13.20;;;13.80;99.90;;;;;;5053909;28;20047;-77
2022/05/26 03:12:54;;;;;;;33.83;13.57;;;13.80;99.90;;;;;;5038086;28;20072;-76
2022/05/26 03:15:20;;;;;;;35.43;13.07;;;13.80;99.90;;;;;;5056848;28;20467;-76
2022/05/26 03:17:46;;;;;;;33.73;13.03;;;13.80;99.90;;;;;;5025555;28;20091;-76
2022/05/26 03:20:12;;;;;;;40.67;12.33;;;13.80;99.90;;;;;;5037554;28;20045;-78
2022/05/26 03:22:38;;;;;;;36.53;12.40;;;13.80;99.90;;;;;;5040558;28;20052;-77
2022/05/26 03:25:06;;;;;;;37.83;13.23;;;13.80;99.90;;;;;;5039223;28;20476;-79
2022/05/26 03:27:32;;;;;;;38.80;12.37;;;13.80;99.90;;;;;;5029706;28;20045;-78
2022/05/26 03:29:58;;;;;;;38.87;13.13;;;13.80;99.90;;;;;;5023458;28;20051;-78
2022/05/26 03:32:23;;;;;;;42.23;12.10;;;13.80;99.90;;;;;;5007595;28;20049;-79
2022/05/26 03:43:05;;;;;;;33.30;10.70;;;13.70;99.90;;;;;;5053130;28;20069;-78
2022/05/26 03:45:34;;;;;;;34.20;10.07;;;13.70;99.90;;;;;;5039169;28;20055;-78
2022/05/26 03:48:01;;;;;;;34.27;9.80;;;13.70;99.90;;;;;;5041041;28;20053;-78
2022/05/26 03:50:27;;;;;;;33.40;10.23;;;13.70;99.90;;;;;;5041277;28;20098;-78
2022/05/26 03:52:54;;;;;;;34.80;9.30;;;13.70;99.90;;;;;;5056546;28;20114;-78
2022/05/26 03:55:20;;;;;;;27.17;8.13;;;13.70;99.90;;;;;;5055436;28;20057;-78
2022/05/26 03:57:46;;;;;;;28.60;8.60;;;13.70;99.90;;;;;;5042271;28;20567;-79
2022/05/26 04:00:14;;;;;;;33.57;8.40;;;13.70;99.90;;;;;;5008724;28;20053;-78
2022/05/26 04:02:40;;;;;;;30.97;8.47;;;13.70;99.90;;;;;;5037053;28;20045;-79
2022/05/26 04:05:07;;;;;;;31.67;9.20;;;13.70;99.90;;;;;;5041099;28;20107;-78
2022/05/26 04:07:34;;;;;;;27.33;8.37;;;13.70;99.90;;;;;;5039884;28;20045;-79
2022/05/26 04:10:08;;;;;;;29.60;8.00;;;13.70;99.90;;;;;;5037232;28;20092;-78
2022/05/26 04:12:35;;;;;;;28.13;8.10;;;13.70;99.90;;;;;;5026242;28;20052;-79
2022/05/26 04:15:02;;;;;;;32.57;7.93;;;13.70;99.90;;;;;;5055201;28;20037;-78
2022/05/26 04:17:28;;;;;;;32.37;7.67;;;13.70;99.90;;;;;;5040243;28;20040;-78
2022/05/26 04:19:54;;;;;;;33.07;9.50;;;13.70;99.90;;;;;;5022935;28;20051;-78
2022/05/26 04:22:23;;;;;;;37.43;8.40;;;13.70;99.90;;;;;;5021444;28;20049;-79
2022/05/26 04:24:53;;;;;;;31.83;8.33;;;13.70;99.90;;;;;;5038583;28;20049;-79
2022/05/26 04:27:21;;;;;;;31.03;8.20;;;13.70;99.90;;;;;;5055317;28;20087;-79
2022/05/26 04:29:47;;;;;;;26.60;8.43;;;13.70;99.90;;;;;;5025556;28;20098;-78
2022/05/26 04:32:13;;;;;;;25.97;8.33;;;13.70;99.90;;;;;;5040897;28;20041;-79
2022/05/26 04:34:39;;;;;;;23.20;7.60;;;13.70;99.90;;;;;;5042378;28;20052;-78
2022/05/26 04:37:05;;;;;;;29.83;8.07;;;13.70;99.90;;;;;;5058499;28;20056;-78
2022/05/26 04:39:32;;;;;;;34.30;8.30;;;13.70;99.90;;;;;;5038379;28;20057;-80
2022/05/26 04:41:59;;;;;;;30.40;8.43;;;13.70;99.90;;;;;;5037446;28;20049;-79
2022/05/26 04:44:31;;;;;;;29.07;8.27;;;13.70;99.90;;;;;;5039708;28;20412;-79
2022/05/26 04:46:56;;;;;;;25.83;7.35;;;13.80;99.90;;;;;;5038311;28;20053;-79
2022/05/26 04:49:22;;;;;;;27.27;7.10;;;13.80;99.90;;;;;;5055119;28;20217;-79
2022/05/26 04:51:48;;;;;;;21.80;6.90;;;13.80;99.90;;;;;;5038069;28;20037;-79
2022/05/26 04:54:14;;;;;;;21.70;7.73;;;13.80;99.90;;;;;;5038515;28;20048;-79
2022/05/26 04:56:39;;;;;;;18.33;6.00;;;13.80;99.90;;;;;;5056922;28;20072;-79
2022/05/26 04:59:06;;;;;;;18.53;6.10;;;13.80;99.90;;;;;;5023736;28;20045;-79
2022/05/26 05:01:32;;;;;;;22.73;6.70;;;13.80;99.90;;;;;;5040269;28;20072;-79
2022/05/26 05:04:00;;;;;;;16.93;5.63;;;13.80;99.90;;;;;;5038141;28;20037;-79
2022/05/26 05:06:25;;;;;;;18.83;5.70;;;13.80;99.90;;;;;;5023787;28;20044;-78
2022/05/26 05:08:51;;;;;;;21.57;5.93;;;13.80;99.90;;;;;;5021429;28;20044;-78
2022/05/26 05:11:17;;;;;;;17.77;5.40;;;13.80;99.90;;;;;;5023021;28;20037;-79
2022/05/26 05:13:44;;;;;;;19.00;5.17;;;13.80;99.90;;;;;;5022143;28;20060;-80
2022/05/26 05:16:22;;;;;;;24.30;5.23;;;13.90;99.90;;;;;;5054474;28;20060;-79
2022/05/26 05:18:50;;;;;;;18.13;4.57;;;13.90;99.90;;;;;;5037350;28;20075;-79
2022/05/26 05:21:23;;;;;;;13.93;3.97;;;13.90;99.90;;;;;;5039414;28;20076;-78
2022/05/26 05:23:56;;;;;;;16.57;3.93;;;13.90;99.90;;;;;;5057767;28;20085;-79
2022/05/26 05:26:24;;;;;;;13.63;3.80;;;13.80;99.90;;;;;;5044019;28;20133;-77
2022/05/26 05:28:55;;;;;;;15.97;3.70;;;13.90;99.90;;;;;;5043600;28;20127;-79
2022/05/26 05:31:26;;;;;;;11.73;3.40;;;13.90;99.90;;;;;;5057665;28;20496;-79
2022/05/26 05:33:59;;;;;;;7.80;3.00;;;13.90;99.90;;;;;;5058901;28;20045;-79
2022/05/26 05:36:31;;;;;;;12.60;3.20;;;14.00;99.90;;;;;;5045649;28;20049;-79
2022/05/26 05:38:58;;;;;;;13.70;4.22;;;14.00;99.90;;;;;;5058647;28;20061;-78
2022/05/26 05:41:25;;;;;;;9.50;3.17;;;14.00;99.90;;;;;;5039890;28;20064;-79
2022/05/26 05:43:51;;;;;;;16.43;4.10;;;14.10;99.90;;;;;;5025784;28;20104;-79
2022/05/26 05:46:19;;;;;;;11.50;3.07;;;14.20;99.90;;;;;;5061653;28;20075;-83
2022/05/26 05:48:46;;;;;;;11.00;2.80;;;14.30;99.90;;;;;;5058394;28;20057;-81
2022/05/26 05:51:12;;;;;;;6.40;2.43;;;14.30;99.90;;;;;;5008918;28;20041;-80
2022/05/26 05:53:38;;;;;;;8.67;2.83;;;14.40;99.90;;;;;;5010449;28;20662;-80
2022/05/26 05:56:05;;;;;;;9.63;2.70;;;14.50;99.90;;;;;;5058764;28;20788;-79
2022/05/26 05:58:31;;;;;;;11.43;2.27;;;14.60;99.90;;;;;;5056325;28;20144;-80
2022/05/26 06:00:57;;;;;;;9.53;2.30;;;14.80;99.90;;;;;;5041791;28;20480;-81
2022/05/26 06:03:23;;;;;;;7.93;2.10;;;14.90;99.90;;;;;;5025128;28;20097;-80
2022/05/26 06:05:49;;;;;;;9.50;2.35;;;15.00;99.90;;;;;;5013512;28;20070;-80
2022/05/26 06:08:15;;;;;;;9.27;1.90;;;15.00;99.90;;;;;;5027848;28;21057;-80
2022/05/26 06:10:40;;;;;;;6.20;1.80;;;15.10;99.90;;;;;;5037515;28;20105;-80
2022/05/26 06:13:06;;;;;;;4.20;1.87;;;15.20;99.90;;;;;;5023644;28;20072;-80
2022/05/26 06:15:33;;;;;;;9.15;2.05;;;15.10;99.90;;;;;;5040594;28;20080;-80
2022/05/26 06:17:59;;;;;;;5.28;1.52;;;15.10;99.90;;;;;;5041634;28;20136;-82
2022/05/26 06:20:26;;;;;;;5.90;2.10;;;15.10;99.90;;;;;;5040874;28;20068;-82
2022/05/26 06:22:52;;;;;;;6.20;1.85;;;15.10;99.90;;;;;;5056365;28;20049;-80
2022/05/26 06:25:20;;;;;;;7.00;2.00;;;15.10;99.90;;;;;;5058191;28;20056;-76
2022/05/26 06:30:30;;;;;;;7.03;1.75;;;15.20;99.90;;;;;;5043507;28;20080;-76
2022/05/26 06:38:37;;;;;;;3.58;1.50;;;15.80;99.90;;;;;;5054554;28;20048;-77
2022/05/26 06:43:52;;;;;;;4.80;1.50;;;16.10;99.90;;;;;;5074868;28;20048;-77
2022/05/26 06:46:18;;;;;;;5.97;1.60;;;16.30;99.90;;;;;;5036938;28;20045;-76
2022/05/26 06:48:45;;;;;;;4.57;1.35;;;16.30;99.90;;;;;;5055306;28;20043;-76
2022/05/26 06:51:11;;;;;;;7.55;1.70;;;16.30;99.90;;;;;;5033721;28;20033;-76
2022/05/26 06:53:38;;;;;;;4.85;1.58;;;16.30;99.90;;;;;;5033498;28;20426;-77
2022/05/26 06:56:05;;;;;;;6.25;1.60;;;16.30;99.90;;;;;;5037898;28;20391;-77
2022/05/26 06:58:31;;;;;;;4.35;1.40;;;16.20;99.90;;;;;;5059983;28;20041;-72
2022/05/26 07:00:57;;;;;;;6.60;1.70;;;16.10;99.90;;;;;;5047475;28;20079;-76
2022/05/26 07:03:23;;;;;;;7.63;1.45;;;16.10;99.90;;;;;;5065146;28;20076;-76
2022/05/26 07:05:50;;;;;;;4.20;1.52;;;16.10;99.90;;;;;;5064607;28;20050;-76
2022/05/26 07:08:17;;;;;;;6.18;1.58;;;16.30;99.90;;;;;;5040349;28;20040;-73
2022/05/26 07:10:45;;;;;;;3.40;1.30;;;16.60;99.90;;;;;;5055585;28;20063;-73
2022/05/26 07:13:12;;;;;;;3.08;1.48;;;16.80;99.90;;;;;;5035092;28;20036;-75
2022/05/26 07:15:38;;;;;;;5.90;1.30;;;17.10;99.90;;;;;;5040802;28;20040;-75
2022/05/26 07:18:07;;;;;;;4.00;1.20;;;17.20;99.90;;;;;;5047629;28;20055;-75
2022/05/26 07:20:36;;;;;;;5.32;1.30;;;17.30;99.90;;;;;;5026876;28;20048;-75
2022/05/26 07:23:10;;;;;;;6.00;1.67;;;17.20;99.90;;;;;;5047615;28;20040;-76
2022/05/26 07:25:43;;;;;;;5.57;1.27;;;17.30;99.90;;;;;;5063585;28;20063;-75
2022/05/26 07:28:12;;;;;;;3.10;1.55;;;17.40;99.90;;;;;;5047241;28;20060;-76
2022/05/26 07:30:39;;;;;;;7.15;1.50;;;17.60;99.90;;;;;;5030376;28;20049;-75
2022/05/26 07:33:05;;;;;;;5.05;1.58;;;17.60;99.90;;;;;;5050701;28;20543;-75
2022/05/26 07:35:30;;;;;;;4.40;1.48;;;17.60;99.90;;;;;;5021796;28;20045;-75
2022/05/26 07:43:30;;;;;;;2.88;1.20;;;17.50;99.90;;;;;;5069969;28;20060;-75
2022/05/26 07:45:56;;;;;;;4.82;1.58;;;17.40;99.90;;;;;;5054305;28;20041;-75
2022/05/26 07:48:22;;;;;;;7.75;1.42;;;17.40;99.90;;;;;;5059406;28;20056;-74
2022/05/26 07:50:47;;;;;;;6.30;1.58;;;17.30;99.90;;;;;;5006179;28;20045;-74
2022/05/26 07:53:13;;;;;;;4.95;1.50;;;17.20;99.90;;;;;;5039550;28;20209;-75
2022/05/26 07:55:42;;;;;;;4.10;1.73;;;17.10;99.90;;;;;;5042758;28;20055;-75
2022/05/26 07:58:10;;;;;;;3.78;1.55;;;17.10;99.90;;;;;;5027882;28;20056;-75
2022/05/26 08:00:36;;;;;;;3.65;1.35;;;17.10;99.90;;;;;;5019498;28;20531;-75
2022/05/26 08:03:02;;;;;;;5.05;1.27;;;17.20;99.90;;;;;;5041781;28;20045;-75
2022/05/26 08:05:28;;;;;;;5.78;1.50;;;17.30;99.90;;;;;;5027579;28;20066;-74
2022/05/26 08:07:54;;;;;;;7.13;1.35;;;17.40;99.90;;;;;;5038162;28;20136;-75
2022/05/26 08:10:20;;;;;;;4.95;1.20;;;17.60;99.90;;;;;;5006148;28;20095;-76
2022/05/26 08:12:46;;;;;;;4.47;1.27;;;17.70;99.90;;;;;;5031062;28;20048;-75
2022/05/26 08:15:12;;;;;;;3.53;1.00;;;17.80;99.90;;;;;;5066439;28;20632;-74
2022/05/26 08:17:38;;;;;;;3.60;1.10;;;17.80;99.90;;;;;;5061119;28;20072;-74
2022/05/26 08:20:05;;;;;;;3.70;1.13;;;17.90;99.90;;;;;;5062447;28;20045;-74
2022/05/26 08:22:31;;;;;;;2.20;0.95;;;17.90;99.90;;;;;;5077647;28;20105;-74
2022/05/26 08:24:58;;;;;;;5.35;1.20;;;17.90;99.90;;;;;;5038367;28;20064;-74
2022/05/26 08:27:24;;;;;;;5.28;1.15;;;17.90;99.90;;;;;;5058225;28;20044;-74
2022/05/26 08:29:54;;;;;;;2.83;1.10;;;18.10;99.90;;;;;;5066830;28;20104;-74
2022/05/26 08:32:21;;;;;;;4.22;1.10;;;18.20;99.90;;;;;;5050836;28;20478;-72
2022/05/26 08:34:47;;;;;;;5.55;0.98;;;18.50;99.90;;;;;;5059527;28;20045;-75
2022/05/26 08:37:15;;;;;;;5.50;1.10;;;18.50;99.90;;;;;;5041290;28;20106;-75
2022/05/26 08:39:41;;;;;;;2.90;1.02;;;18.50;99.90;;;;;;5040976;28;20051;-76
2022/05/26 08:42:12;;;;;;;3.67;1.23;;;18.50;99.90;;;;;;5021897;28;20045;-77
2022/05/26 08:44:39;;;;;;;6.40;1.08;;;18.60;99.90;;;;;;5044804;28;20047;-75
2022/05/26 08:47:30;;;;;;;2.65;1.27;;;18.70;99.90;;;;;;5037306;28;20086;-74
2022/05/26 08:50:00;;;;;;;2.05;0.98;;;18.80;99.90;;;;;;5043531;28;20075;-75
2022/05/26 08:52:36;;;;;;;3.85;0.80;;;18.80;99.90;;;;;;5065557;28;20424;-75
2022/05/26 08:55:19;;;;;;;4.45;1.20;;;18.80;99.90;;;;;;5059476;28;20075;-76
2022/05/26 08:58:06;;;;;;;4.15;0.95;;;18.70;99.90;;;;;;5050343;28;20528;-74
2022/05/26 09:00:32;;;;;;;3.58;0.90;;;18.70;99.90;;;;;;5042574;28;20051;-74
2022/05/26 09:03:00;;;;;;;2.20;0.80;;;18.70;99.90;;;;;;5048989;28;20045;-74
2022/05/26 09:05:30;;;;;;;2.88;1.00;;;18.80;99.90;;;;;;5038265;28;20049;-74
2022/05/26 09:13:30;;;;;;;6.78;1.15;;;19.00;99.90;;;;;;5067355;28;20048;-73
2022/05/26 09:16:02;;;;;;;2.63;0.90;;;19.10;99.90;;;;;;5073272;28;20049;-74
2022/05/26 09:18:28;;;;;;;6.05;1.00;;;19.30;99.90;;;;;;5064622;28;20159;-74
2022/05/26 09:20:54;;;;;;;4.45;0.90;;;19.30;99.90;;;;;;5025506;28;20083;-74
2022/05/26 09:23:28;;;;;;;3.15;1.15;;;19.30;99.90;;;;;;5037791;28;20045;-74
2022/05/26 09:26:08;;;;;;;3.90;1.05;;;19.20;99.90;;;;;;5055908;28;20041;-73
2022/05/26 09:28:46;;;;;;;5.28;1.30;;;18.80;99.90;;;;;;5051624;28;20037;-73
2022/05/26 09:31:31;;;;;;;3.58;0.90;;;18.70;99.90;;;;;;5054089;28;20118;-73
2022/05/26 09:34:02;;;;;;;3.08;1.02;;;18.50;99.90;;;;;;5051686;28;20059;-73
2022/05/26 09:36:36;;;;;;;0.90;0.70;;;18.50;99.90;;;;;;5057794;28;20054;-74
2022/05/26 09:39:04;;;;;;;6.55;1.20;;;18.80;99.90;;;;;;5060809;28;20061;-74
2022/05/26 09:41:47;;;;;;;4.07;0.93;;;19.10;99.90;;;;;;5020230;28;20509;-74
2022/05/26 09:44:39;;;;;;;3.50;0.88;;;19.30;99.90;;;;;;5048728;28;20082;-74
2022/05/26 09:47:18;;;;;;;3.20;0.77;;;19.30;99.90;;;;;;5083173;28;20108;-74
2022/05/26 09:49:47;;;;;;;4.13;1.40;;;19.30;99.90;;;;;;5049352;28;20048;-74
2022/05/26 09:52:19;;;;;;;3.35;1.00;;;19.30;99.90;;;;;;5047165;28;20123;-73
2022/05/26 09:54:46;;;;;;;;;;;19.20;99.90;;;;;;5052502;28;20060;-75
2022/05/26 09:57:20;;;;;;;2.30;0.90;;;19.20;99.90;;;;;;5071087;28;20397;-74
2022/05/26 09:59:47;;;;;;;3.38;0.90;;;19.30;99.90;;;;;;5049164;28;20053;-74
2022/05/26 10:02:22;;;;;;;1.85;0.93;;;19.40;99.90;;;;;;5068117;28;20044;-74
2022/05/26 10:04:55;;;;;;;2.67;0.80;;;19.30;99.90;;;;;;5066413;28;20040;-74
2022/05/26 10:07:49;;;;;;;2.88;1.10;;;19.20;99.90;;;;;;5044241;28;20045;-73
2022/05/26 10:10:29;;;;;;;3.13;0.77;;;19.20;99.90;;;;;;5076573;28;20102;-74
2022/05/26 10:13:21;;;;;;;2.53;0.75;;;19.30;99.90;;;;;;5056132;28;20033;-74
2022/05/26 10:16:25;;;;;;;2.95;0.90;;;19.30;99.90;;;;;;5062062;28;20051;-74
2022/05/26 10:18:53;;;;;;;1.92;0.70;;;19.10;99.90;;;;;;4975386;28;20482;-74
2022/05/26 10:21:40;;;;;;;2.88;0.82;;;18.90;99.90;;;;;;5049836;28;20063;-74
2022/05/26 10:24:15;;;;;;;2.05;0.77;;;18.90;99.90;;;;;;5057096;28;20138;-74
2022/05/26 10:27:13;;;;;;;3.78;1.00;;;19.00;99.90;;;;;;5056051;28;20048;-74
2022/05/26 10:30:04;;;;;;;2.47;0.70;;;19.10;99.90;;;;;;5016327;28;20049;-74
2022/05/26 10:32:55;;;;;;;2.97;0.80;;;19.00;99.90;;;;;;5051581;28;20056;-75
2022/05/26 10:35:32;;;;;;;3.50;0.85;;;18.90;99.90;;;;;;5073673;28;20100;-74
2022/05/26 10:38:21;;;;;;;2.40;0.80;;;18.80;99.90;;;;;;5046969;28;20053;-74
2022/05/26 10:41:02;;;;;;;5.20;0.90;;;18.80;99.90;;;;;;5043017;28;20044;-74
2022/05/26 10:43:49;;;;;;;4.30;0.90;;;18.80;99.90;;;;;;5047319;28;20044;-74
2022/05/26 10:46:18;;;;;;;5.20;0.98;;;18.60;99.90;;;;;;5052873;28;20125;-74
2022/05/26 10:48:51;;;;;;;2.65;0.88;;;18.50;99.90;;;;;;5044914;28;20045;-73
2022/05/26 10:51:46;;;;;;;5.15;1.38;;;18.70;99.90;;;;;;5062050;28;20447;-74
2022/05/26 10:54:16;;;;;;;6.45;1.25;;;18.70;99.90;;;;;;5041436;28;20045;-74
2022/05/26 10:56:47;;;;;;;3.30;1.30;;;18.60;99.90;;;;;;5034819;28;20066;-74
2022/05/26 10:59:27;;;;;;;3.45;1.08;;;18.30;99.90;;;;;;5053416;28;20049;-74
2022/05/26 11:02:17;;;;;;;3.45;1.20;;;18.10;99.90;;;;;;5064829;28;20055;-74
2022/05/26 11:05:08;;;;;;;2.65;1.77;;;18.00;99.90;;;;;;5064393;28;20645;-74
2022/05/26 11:07:44;;;;;;;2.78;1.40;;;18.00;99.90;;;;;;5069783;28;20049;-74
2022/05/26 11:10:22;;;;;;;2.95;1.35;;;18.00;99.90;;;;;;5065866;28;20094;-74
2022/05/26 11:12:59;;;;;;;3.63;1.67;;;17.90;99.90;;;;;;5050778;28;20120;-74
2022/05/26 11:18:36;;;;;;;2.55;1.40;;;17.80;99.90;;;;;;5065682;28;20041;-74
2022/05/26 11:21:02;;;;;;;6.45;1.70;;;17.70;99.90;;;;;;5042455;28;20531;-74
2022/05/26 11:23:35;;;;;;;4.32;1.60;;;17.60;99.90;;;;;;5066267;28;20516;-74
2022/05/26 11:26:38;;;;;;;4.32;1.60;;;17.60;99.90;;;;;;5046680;28;20045;-74
2022/05/26 11:29:20;;;;;;;4.55;1.73;;;17.60;99.90;;;;;;5054481;28;20041;-74
2022/05/26 11:37:40;;;;;;;4.18;1.60;;;17.60;99.90;;;;;;5069277;28;20119;-74
2022/05/26 11:40:09;;;;;;;5.00;2.00;;;17.60;99.90;;;;;;5026479;28;20059;-74
2022/05/26 11:42:58;;;;;;;4.53;2.15;;;17.60;99.90;;;;;;5049335;28;20083;-74
2022/05/26 11:45:31;;;;;;;5.50;1.70;;;17.70;99.90;;;;;;5057675;28;20087;-75
2022/05/26 11:47:58;;;;;;;5.30;2.10;;;17.80;99.90;;;;;;5052960;28;20101;-74
2022/05/26 11:50:49;;;;;;;5.57;1.90;;;17.70;99.90;;;;;;5042791;28;20410;-74
2022/05/26 11:53:31;;;;;;;5.28;1.67;;;17.70;99.90;;;;;;5054991;28;20052;-74
2022/05/26 11:56:04;;;;;;;5.23;1.90;;;17.60;99.90;;;;;;5071794;28;20040;-74
2022/05/26 11:58:44;;;;;;;4.15;1.60;;;17.60;99.90;;;;;;5071247;28;20362;-74
2022/05/26 12:01:19;;;;;;;3.70;1.73;;;17.70;99.90;;;;;;5053670;28;20052;-74
2022/05/26 12:03:54;;;;;;;7.07;1.92;;;17.70;99.90;;;;;;5025886;28;20052;-74
2022/05/26 12:06:42;;;;;;;4.38;1.70;;;17.60;99.90;;;;;;5047802;28;20116;-74
2022/05/26 12:09:11;;;;;;;5.68;1.70;;;17.60;99.90;;;;;;5047080;28;20079;-74
2022/05/26 12:12:01;;;;;;;4.72;1.50;;;17.70;99.90;;;;;;5068274;28;20494;-74
2022/05/26 12:14:29;;;;;;;3.90;1.30;;;18.00;99.90;;;;;;5063292;28;20116;-74
2022/05/26 12:17:30;;;;;;;3.80;1.50;;;18.20;99.90;;;;;;5067987;28;20334;-74
2022/05/26 12:20:03;;;;;;;3.47;1.33;;;18.20;99.90;;;;;;5039368;28;20081;-72
2022/05/26 12:22:53;;;;;;;5.45;1.67;;;18.10;99.90;;;;;;5073259;28;20117;-72
2022/05/26 12:25:28;;;;;;;3.45;1.30;;;18.00;99.90;;;;;;5033591;28;20060;-72
2022/05/26 12:28:13;;;;;;;2.47;1.40;;;18.00;99.90;;;;;;5071616;28;20041;-73
2022/05/26 12:30:44;;;;;;;2.00;1.40;;;18.10;99.90;;;;;;5061621;28;20076;-72
2022/05/26 12:33:19;;;;;;;4.07;1.42;;;18.10;99.90;;;;;;5068928;28;20078;-72
2022/05/26 12:36:01;;;;;;;2.22;1.20;;;18.10;99.90;;;;;;5073152;28;20044;-72
2022/05/26 12:38:44;;;;;;;7.88;1.60;;;18.20;99.90;;;;;;5070215;28;20049;-72
2022/05/26 12:41:34;;;;;;;4.68;1.30;;;18.10;99.90;;;;;;5043262;28;20436;-72
2022/05/26 12:44:39;;;;;;;1.50;1.33;;;18.10;99.90;;;;;;5047818;28;20053;-72
2022/05/26 12:47:16;;;;;;;3.78;1.50;;;18.00;99.90;;;;;;4957307;28;20050;-72
2022/05/26 12:49:56;;;;;;;3.50;1.20;;;18.10;99.90;;;;;;4956571;28;20422;-72
2022/05/26 12:52:32;;;;;;;3.03;1.45;;;18.10;99.90;;;;;;5027263;28;20139;-72
2022/05/26 12:55:16;;;;;;;3.97;1.63;;;18.20;99.90;;;;;;5060552;28;20045;-72
2022/05/26 12:57:46;;;;;;;3.75;1.40;;;18.30;99.90;;;;;;5048850;28;20049;-72
2022/05/26 13:00:25;;;;;;;4.53;1.27;;;18.50;99.90;;;;;;5039823;28;20050;-72
2022/05/26 13:03:15;;;;;;;3.80;1.08;;;18.50;99.90;;;;;;5068273;28;20500;-72
2022/05/26 13:05:44;;;;;;;6.20;1.35;;;18.50;99.90;;;;;;5054370;28;20072;-72
2022/05/26 13:08:17;;;;;;;3.85;1.10;;;18.60;99.90;;;;;;5050312;28;20044;-72
2022/05/26 13:10:44;;;;;;;5.43;1.35;;;18.80;99.90;;;;;;5050806;28;20045;-72
2022/05/26 13:13:39;;;;;;;2.53;1.20;;;19.00;99.90;;;;;;5037242;28;20071;-72
2022/05/26 13:16:27;;;;;;;5.50;1.20;;;19.10;99.90;;;;;;5056784;28;20048;-72
2022/05/26 13:19:12;;;;;;;2.42;1.30;;;19.10;99.90;;;;;;5061851;28;20483;-72
2022/05/26 13:21:40;;;;;;;3.47;1.33;;;19.20;99.90;;;;;;5034515;28;20112;-72
2022/05/26 13:24:14;;;;;;;4.57;1.33;;;19.20;99.90;;;;;;5067718;28;20104;-72
2022/05/26 13:26:42;;;;;;;5.25;1.33;;;19.20;99.90;;;;;;5056375;28;20041;-72
2022/05/26 13:29:09;;;;;;;5.45;1.23;;;19.10;99.90;;;;;;5049663;28;20183;-72
2022/05/26 13:34:27;;;;;;;5.65;1.65;;;19.00;99.90;;;;;;5055366;28;20431;-72
2022/05/26 13:36:53;;;;;;;4.38;1.40;;;18.90;99.90;;;;;;5033313;28;20518;-72
2022/05/26 13:39:25;;;;;;;3.55;1.30;;;18.70;99.90;;;;;;5043432;28;20056;-72
2022/05/26 13:41:52;;;;;;;;;;;18.70;99.90;;;;;;5067896;28;20064;-73
2022/05/26 13:44:28;;;;;;;6.70;1.73;;;18.60;99.90;;;;;;5079320;28;20002;-73
2022/05/26 13:46:54;;;;;;;5.88;1.30;;;18.50;99.90;;;;;;5065799;28;20048;-72
2022/05/26 13:49:32;;;;;;;6.25;2.00;;;18.50;99.90;;;;;;5037580;28;20045;-72
2022/05/26 13:52:00;;;;;;;4.25;1.67;;;18.50;99.90;;;;;;5045192;28;20036;-72